createdAt,value
2022-12-17T00:00:59.623Z,9.73
2022-12-17T00:06:26.665Z,11.93
2022-12-17T00:09:13.850Z,11.02
2022-12-17T00:12:01.339Z,13.05
2022-12-17T00:14:48.782Z,12.38
2022-12-17T00:17:30.941Z,13.00
2022-12-17T00:20:13.050Z,12.05
2022-12-17T00:22:57.147Z,9.52
2022-12-17T00:25:39.276Z,10.88
2022-12-17T00:28:24.739Z,12.30
2022-12-17T00:31:07.332Z,10.50
2022-12-17T00:33:49.501Z,9.30
2022-12-17T00:36:31.703Z,11.32
2022-12-17T00:39:21.074Z,9.70
2022-12-17T00:42:11.943Z,8.15
2022-12-17T00:44:54.101Z,8.00
2022-12-17T00:47:41.346Z,9.50
2022-12-17T00:50:33.662Z,8.90
2022-12-17T00:53:20.828Z,8.30
2022-12-17T00:56:04.970Z,10.13
2022-12-17T01:02:00.183Z,7.03
2022-12-17T01:04:42.541Z,6.95
2022-12-17T01:07:24.711Z,8.10
2022-12-17T01:10:06.903Z,10.75
2022-12-17T01:12:51.012Z,13.18
2022-12-17T01:15:40.274Z,9.25
2022-12-17T01:18:22.505Z,7.32
2022-12-17T01:21:16.157Z,10.60
2022-12-17T01:23:58.309Z,6.70
2022-12-17T01:29:47.056Z,10.32
2022-12-17T01:32:29.242Z,11.68
2022-12-17T01:35:17.928Z,7.75
2022-12-17T01:38:00.765Z,12.15
2022-12-17T01:40:43.087Z,9.20
2022-12-17T01:43:26.749Z,11.07
2022-12-17T01:46:16.263Z,9.73
2022-12-17T01:49:03.615Z,8.90
2022-12-17T01:51:46.225Z,8.63
2022-12-17T01:54:29.395Z,9.85
2022-12-17T01:57:12.378Z,11.35
2022-12-17T02:00:01.124Z,9.43
2022-12-17T02:02:49.292Z,8.90
2022-12-17T02:05:31.749Z,9.68
2022-12-17T02:08:25.493Z,9.60
2022-12-17T02:11:16.860Z,10.95
2022-12-17T02:14:10.165Z,9.02
2022-12-17T02:16:58.164Z,9.05
2022-12-17T02:19:55.458Z,10.18
2022-12-17T02:22:54.371Z,8.80
2022-12-17T02:25:46.960Z,11.25
2022-12-17T02:28:31.055Z,10.85
2022-12-17T02:31:14.280Z,10.55
2022-12-17T02:33:57.226Z,9.77
2022-12-17T02:36:39.418Z,12.18
2022-12-17T02:39:21.438Z,9.43
2022-12-17T02:42:08.039Z,9.45
2022-12-17T02:44:55.486Z,9.35
2022-12-17T02:47:43.221Z,9.88
2022-12-17T02:50:30.565Z,10.95
2022-12-17T02:53:15.443Z,8.48
2022-12-17T02:56:03.808Z,11.65
2022-12-17T02:58:54.176Z,7.20
2022-12-17T03:01:38.418Z,10.35
2022-12-17T03:04:25.689Z,8.60
2022-12-17T03:07:07.911Z,7.28
2022-12-17T03:09:55.130Z,7.32
2022-12-17T03:12:39.083Z,9.10
2022-12-17T03:18:05.317Z,7.28
2022-12-17T03:20:52.587Z,7.90
2022-12-17T03:23:35.026Z,5.85
2022-12-17T03:26:23.668Z,5.40
2022-12-17T03:29:05.728Z,7.22
2022-12-17T03:31:48.334Z,8.32
2022-12-17T03:34:32.443Z,9.20
2022-12-17T03:37:14.731Z,9.70
2022-12-17T03:39:56.857Z,7.05
2022-12-17T03:42:45.737Z,11.05
2022-12-17T03:45:27.924Z,8.90
2022-12-17T03:48:19.850Z,8.25
2022-12-17T03:51:03.975Z,7.90
2022-12-17T03:53:56.826Z,10.30
2022-12-17T03:56:39.262Z,8.57
2022-12-17T03:59:35.647Z,12.13
2022-12-17T04:02:18.051Z,9.05
2022-12-17T04:05:00.416Z,8.75
2022-12-17T04:07:44.722Z,9.88
2022-12-17T04:10:31.962Z,7.45
2022-12-17T04:13:19.946Z,9.25
2022-12-17T04:16:02.323Z,10.73
2022-12-17T04:18:44.696Z,9.30
2022-12-17T04:21:26.981Z,8.57
2022-12-17T04:24:21.568Z,6.72
2022-12-17T04:27:03.694Z,7.00
2022-12-17T04:32:31.086Z,8.88
2022-12-17T04:35:21.526Z,7.70
2022-12-17T04:38:04.595Z,8.73
2022-12-17T04:40:48.857Z,7.20
2022-12-17T04:43:31.106Z,8.00
2022-12-17T04:46:13.520Z,6.97
2022-12-17T04:48:55.803Z,11.88
2022-12-17T04:51:38.065Z,9.45
2022-12-17T04:54:20.423Z,9.45
2022-12-17T04:57:04.468Z,9.23
2022-12-17T05:02:37.051Z,11.98
2022-12-17T05:05:31.793Z,6.90
2022-12-17T05:08:13.852Z,9.00
2022-12-17T05:10:56.577Z,8.38
2022-12-17T05:13:40.760Z,7.18
2022-12-17T05:16:23.600Z,7.90
2022-12-17T05:19:05.805Z,8.43
2022-12-17T05:21:52.965Z,5.50
2022-12-17T05:24:35.040Z,6.57
2022-12-17T05:27:22.252Z,6.88
2022-12-17T05:30:06.440Z,10.48
2022-12-17T05:32:53.639Z,5.95
2022-12-17T05:35:35.721Z,7.93
2022-12-17T05:38:22.188Z,7.07
2022-12-17T05:41:16.400Z,8.55
2022-12-17T05:44:07.720Z,7.57
2022-12-17T05:47:00.543Z,6.73
2022-12-17T05:49:42.752Z,5.70
2022-12-17T05:52:24.790Z,10.00
2022-12-17T05:55:07.219Z,11.65
2022-12-17T05:57:53.164Z,9.13
2022-12-17T06:00:36.804Z,9.70
2022-12-17T06:03:20.987Z,8.38
2022-12-17T06:06:08.177Z,9.20
2022-12-17T06:08:50.219Z,8.85
2022-12-17T06:11:37.689Z,9.55
2022-12-17T06:14:19.952Z,7.30
2022-12-17T06:17:02.202Z,7.07
2022-12-17T06:19:46.299Z,11.07
2022-12-17T06:22:43.342Z,9.20
2022-12-17T06:25:25.681Z,10.23
2022-12-17T06:28:22.083Z,12.43
2022-12-17T06:31:05.981Z,11.20
2022-12-17T06:33:48.198Z,11.88
2022-12-17T06:36:40.881Z,12.60
2022-12-17T06:39:23.210Z,10.45
2022-12-17T06:42:05.343Z,8.98
2022-12-17T06:44:52.567Z,9.80
2022-12-17T06:47:34.805Z,9.80
2022-12-17T06:50:16.872Z,9.65
2022-12-17T06:55:42.535Z,7.38
2022-12-17T06:58:29.696Z,11.88
2022-12-17T07:01:17.045Z,9.57
2022-12-17T07:03:59.307Z,13.77
2022-12-17T07:06:41.493Z,9.60
2022-12-17T07:09:25.879Z,12.27
2022-12-17T07:12:08.070Z,8.90
2022-12-17T07:14:50.255Z,10.60
2022-12-17T07:17:37.521Z,8.82
2022-12-17T07:20:20.580Z,9.98
2022-12-17T07:23:02.711Z,12.85
2022-12-17T07:28:34.665Z,11.00
2022-12-17T07:31:16.930Z,10.30
2022-12-17T07:33:59.024Z,8.18
2022-12-17T07:36:53.003Z,10.95
2022-12-17T07:39:35.108Z,11.98
2022-12-17T07:42:19.432Z,11.20
2022-12-17T07:45:01.715Z,11.07
2022-12-17T07:47:45.950Z,10.80
2022-12-17T07:50:28.290Z,11.63
2022-12-17T07:53:17.407Z,10.13
2022-12-17T07:55:59.481Z,9.77
2022-12-17T07:58:43.525Z,7.70
2022-12-17T08:01:25.829Z,10.52
2022-12-17T08:04:08.163Z,11.00
2022-12-17T08:06:50.377Z,8.60
2022-12-17T08:09:38.561Z,11.23
2022-12-17T08:12:21.530Z,7.03
2022-12-17T08:15:05.825Z,12.40
2022-12-17T08:17:47.781Z,10.48
2022-12-17T08:20:31.180Z,11.98
2022-12-17T08:23:24.258Z,12.18
2022-12-17T08:26:06.404Z,9.90
2022-12-17T08:31:35.817Z,9.88
2022-12-17T08:34:18.061Z,10.93
2022-12-17T08:40:04.903Z,8.70
2022-12-17T08:42:47.058Z,9.65
2022-12-17T08:45:34.311Z,8.82
2022-12-17T08:48:22.874Z,7.43
2022-12-17T08:51:04.996Z,13.88
2022-12-17T08:53:47.100Z,12.68
2022-12-17T08:56:29.178Z,11.98
2022-12-17T09:01:53.230Z,10.07
2022-12-17T09:04:37.380Z,11.02
2022-12-17T09:07:19.775Z,12.13
2022-12-17T09:10:01.928Z,11.75
2022-12-17T09:12:45.253Z,11.13
2022-12-17T09:15:27.321Z,12.20
2022-12-17T09:21:09.497Z,12.75
2022-12-17T09:24:01.760Z,8.55
2022-12-17T09:26:44.123Z,10.50
2022-12-17T09:32:13.525Z,10.57
2022-12-17T09:34:55.557Z,12.23
2022-12-17T09:40:24.771Z,11.18
2022-12-17T09:43:13.117Z,8.60
2022-12-17T09:46:05.410Z,13.23
2022-12-17T09:48:54.406Z,13.27
2022-12-17T09:51:39.422Z,12.85
2022-12-17T09:54:30.582Z,11.73
2022-12-17T09:57:13.486Z,12.70
2022-12-17T09:59:55.576Z,9.25
2022-12-17T10:05:28.505Z,10.88
2022-12-17T10:08:10.627Z,10.77
2022-12-17T10:11:01.579Z,12.07
2022-12-17T10:13:43.868Z,13.25
2022-12-17T10:16:41.926Z,8.90
2022-12-17T10:19:32.123Z,10.02
2022-12-17T10:22:22.731Z,9.68
2022-12-17T10:25:04.852Z,10.13
2022-12-17T10:27:49.057Z,14.05
2022-12-17T10:30:31.992Z,11.32
2022-12-17T10:33:14.099Z,9.30
2022-12-17T10:38:40.807Z,6.80
2022-12-17T10:41:35.334Z,9.85
2022-12-17T10:44:38.320Z,9.95
2022-12-17T10:47:23.937Z,9.52
2022-12-17T10:50:17.346Z,12.75
2022-12-17T10:53:01.371Z,10.75
2022-12-17T10:55:45.530Z,9.50
2022-12-17T10:58:29.474Z,12.90
2022-12-17T11:01:17.093Z,9.43
2022-12-17T11:04:11.082Z,11.65
2022-12-17T11:06:57.788Z,8.80
2022-12-17T11:09:57.368Z,12.38
2022-12-17T11:12:45.454Z,5.95
2022-12-17T11:15:37.139Z,13.32
2022-12-17T11:18:27.792Z,12.73
2022-12-17T11:21:26.113Z,10.07
2022-12-17T11:24:19.104Z,12.52
2022-12-17T11:27:06.901Z,9.18
2022-12-17T11:29:48.953Z,8.30
2022-12-17T11:35:38.569Z,8.98
2022-12-17T11:38:43.998Z,11.70
2022-12-17T11:41:30.310Z,8.77
2022-12-17T11:44:21.924Z,11.60
2022-12-17T11:47:13.150Z,11.27
2022-12-17T11:50:02.458Z,11.53
2022-12-17T11:52:57.663Z,11.15
2022-12-17T11:55:51.383Z,10.52
2022-12-17T11:58:39.925Z,10.35
2022-12-17T12:01:31.761Z,10.35
2022-12-17T12:04:24.382Z,10.52
2022-12-17T12:07:16.506Z,8.15
2022-12-17T12:15:57.521Z,12.25
2022-12-17T12:18:50.060Z,10.45
2022-12-17T12:21:47.323Z,12.30
2022-12-17T12:24:53.500Z,11.93
2022-12-17T12:27:46.062Z,12.60
2022-12-17T12:30:35.608Z,10.40
2022-12-17T12:33:30.054Z,13.35
2022-12-17T12:36:17.177Z,11.63
2022-12-17T12:38:59.368Z,9.98
2022-12-17T12:41:57.786Z,13.05
2022-12-17T12:44:50.006Z,12.70
2022-12-17T12:55:21.595Z,11.07
2022-12-17T12:58:12.570Z,11.20
2022-12-17T13:01:06.807Z,10.90
2022-12-17T13:03:52.891Z,11.38
2022-12-17T13:06:41.443Z,9.77
2022-12-17T13:09:23.230Z,12.88
2022-12-17T13:12:10.329Z,11.27
2022-12-17T13:14:50.426Z,11.80
2022-12-17T13:17:39.311Z,11.40
2022-12-17T13:20:28.101Z,8.73
2022-12-17T13:23:26.936Z,10.13
2022-12-17T13:26:18.319Z,8.48
2022-12-17T13:29:03.072Z,13.18
2022-12-17T13:31:45.778Z,9.45
2022-12-17T13:34:22.675Z,10.50
2022-12-17T13:37:00.688Z,10.20
2022-12-17T13:39:40.996Z,11.18
2022-12-17T13:42:19.911Z,10.90
2022-12-17T13:44:56.297Z,14.40
2022-12-17T13:47:27.553Z,10.10
2022-12-17T13:50:32.868Z,10.43
2022-12-17T13:52:54.606Z,11.13
2022-12-17T13:55:26.427Z,12.90
2022-12-17T13:57:57.879Z,13.15
2022-12-17T14:00:35.770Z,12.73
2022-12-17T14:03:13.114Z,8.30
2022-12-17T14:05:46.022Z,11.07
2022-12-17T14:08:19.309Z,13.65
2022-12-17T14:11:14.031Z,10.45
2022-12-17T14:13:48.919Z,12.13
2022-12-17T14:16:27.130Z,12.98
2022-12-17T14:19:00.051Z,13.05
2022-12-17T14:21:32.714Z,10.02
2022-12-17T14:24:07.947Z,13.27
2022-12-17T14:26:37.232Z,12.50
2022-12-17T14:29:15.089Z,15.25
2022-12-17T14:31:54.709Z,9.38
2022-12-17T14:34:25.385Z,11.18
2022-12-17T14:36:59.933Z,10.63
2022-12-17T14:39:30.966Z,11.20
2022-12-17T14:42:14.667Z,12.73
2022-12-17T14:44:53.343Z,11.20
2022-12-17T14:50:09.857Z,17.52
2022-12-17T14:52:43.577Z,18.25
2022-12-17T14:55:34.465Z,15.02
2022-12-17T14:58:21.239Z,14.70
2022-12-17T15:00:55.223Z,11.70
2022-12-17T15:03:29.558Z,14.55
2022-12-17T15:06:01.922Z,15.55
2022-12-17T15:08:34.389Z,16.00
2022-12-17T15:11:04.152Z,18.25
2022-12-17T15:13:33.271Z,18.80
2022-12-17T15:16:13.702Z,17.05
2022-12-17T15:18:44.837Z,19.48
2022-12-17T15:21:20.313Z,17.80
2022-12-17T15:23:51.500Z,18.30
2022-12-17T15:26:21.062Z,18.52
2022-12-17T15:28:50.292Z,17.60
2022-12-17T15:31:24.470Z,18.75
2022-12-17T15:34:02.224Z,20.00
2022-12-17T15:36:32.956Z,17.30
2022-12-17T15:39:02.157Z,16.23
2022-12-17T15:41:44.412Z,17.63
2022-12-17T15:44:14.852Z,20.35
2022-12-17T15:46:44.249Z,23.20
2022-12-17T15:49:21.558Z,18.63
2022-12-17T15:51:55.947Z,18.27
2022-12-17T15:54:25.418Z,19.17
2022-12-17T15:56:55.409Z,20.45
2022-12-17T15:59:24.629Z,19.58
2022-12-17T16:01:58.905Z,19.92
2022-12-17T16:04:30.354Z,22.23
2022-12-17T16:06:59.707Z,20.52
2022-12-17T16:09:29.100Z,20.17
2022-12-17T16:11:59.225Z,23.00
2022-12-17T16:14:28.492Z,17.58
2022-12-17T16:16:57.750Z,21.15
2022-12-17T16:19:26.817Z,19.42
2022-12-17T16:21:58.296Z,21.25
2022-12-17T16:24:27.570Z,19.35
2022-12-17T16:27:02.417Z,18.60
2022-12-17T16:29:33.848Z,17.92
2022-12-17T16:32:03.115Z,16.83
2022-12-17T16:34:32.649Z,25.40
2022-12-17T16:37:03.820Z,21.65
2022-12-17T16:39:33.075Z,28.45
2022-12-17T16:42:02.218Z,22.63
2022-12-17T16:44:31.555Z,22.58
2022-12-17T16:47:00.837Z,25.17
2022-12-17T16:49:30.663Z,23.63
2022-12-17T16:52:05.360Z,22.52
2022-12-17T16:54:35.815Z,23.63
2022-12-17T16:57:10.189Z,21.85
2022-12-17T16:59:39.386Z,28.85
2022-12-17T17:02:14.123Z,24.80
2022-12-17T17:04:43.517Z,22.40
2022-12-17T17:07:14.848Z,30.02
2022-12-17T17:09:43.992Z,25.65
2022-12-17T17:12:13.118Z,21.02
2022-12-17T17:14:47.513Z,28.25
2022-12-17T17:17:54.529Z,25.30
2022-12-17T17:20:18.072Z,26.50
2022-12-17T17:22:49.280Z,27.38
2022-12-17T17:25:18.921Z,24.85
2022-12-17T17:27:48.041Z,27.17
2022-12-17T17:30:17.328Z,24.25
2022-12-17T17:32:46.485Z,29.40
2022-12-17T17:35:16.048Z,30.08
2022-12-17T17:37:45.128Z,25.65
2022-12-17T17:40:26.356Z,33.10
2022-12-17T17:42:55.539Z,33.63
2022-12-17T17:45:24.846Z,31.55
2022-12-17T17:47:54.089Z,25.42
2022-12-17T17:50:35.962Z,24.92
2022-12-17T17:55:38.308Z,28.38
2022-12-17T17:58:07.552Z,25.50
2022-12-17T18:00:41.955Z,31.05
2022-12-17T18:03:16.567Z,33.35
2022-12-17T18:05:45.812Z,31.88
2022-12-17T18:08:14.874Z,35.72
2022-12-17T18:11:01.442Z,32.97
2022-12-17T18:13:43.660Z,22.42
2022-12-17T18:16:13.474Z,26.20
2022-12-17T18:18:42.964Z,22.10
2022-12-17T18:21:19.593Z,29.55
2022-12-17T18:23:49.313Z,23.88
2022-12-17T18:26:26.521Z,33.30
2022-12-17T18:29:02.620Z,27.38
2022-12-17T18:31:33.592Z,33.00
2022-12-17T18:34:04.565Z,34.47
2022-12-17T18:36:40.568Z,30.00
2022-12-17T18:39:13.561Z,22.13
2022-12-17T18:41:58.443Z,26.25
2022-12-17T18:44:34.540Z,21.13
2022-12-17T18:47:03.803Z,17.65
2022-12-17T18:49:32.963Z,18.75
2022-12-17T18:52:02.414Z,22.33
2022-12-17T18:54:34.324Z,24.13
2022-12-17T18:57:05.545Z,21.52
2022-12-17T18:59:34.898Z,21.83
2022-12-17T19:02:04.036Z,23.08
2022-12-17T19:04:34.090Z,22.98
2022-12-17T19:07:03.371Z,21.55
2022-12-17T19:09:35.121Z,17.15
2022-12-17T19:14:42.450Z,20.35
2022-12-17T19:17:12.086Z,19.10
2022-12-17T19:19:41.156Z,20.63
2022-12-17T19:22:10.286Z,24.92
2022-12-17T19:24:39.440Z,20.33
2022-12-17T19:27:10.643Z,24.38
2022-12-17T19:29:49.465Z,20.27
2022-12-17T19:32:24.406Z,19.55
2022-12-17T19:34:58.566Z,21.58
2022-12-17T19:37:27.759Z,23.05
2022-12-17T19:39:56.931Z,20.88
2022-12-17T19:42:37.282Z,17.35
2022-12-17T19:45:08.098Z,23.27
2022-12-17T19:47:40.072Z,12.90
2022-12-17T19:50:10.109Z,21.13
2022-12-17T19:52:39.595Z,28.38
2022-12-17T19:55:09.639Z,25.05
2022-12-17T19:57:40.920Z,25.33
2022-12-17T20:00:11.944Z,29.90
2022-12-17T20:02:43.940Z,24.92
2022-12-17T20:05:13.630Z,25.35
2022-12-17T20:07:42.761Z,18.30
2022-12-17T20:10:12.056Z,26.55
2022-12-17T20:12:44.261Z,23.08
2022-12-17T20:15:18.554Z,24.25
2022-12-17T20:17:47.791Z,23.27
2022-12-17T20:20:17.280Z,28.23
2022-12-17T20:22:52.273Z,27.67
2022-12-17T20:25:21.579Z,28.33
2022-12-17T20:27:58.163Z,27.65
2022-12-17T20:30:33.033Z,23.75
2022-12-17T20:33:02.493Z,29.73
2022-12-17T20:35:31.572Z,25.63
2022-12-17T20:38:01.121Z,26.30
2022-12-17T20:40:30.275Z,29.25
2022-12-17T20:43:03.289Z,28.67
2022-12-17T20:45:32.600Z,20.27
2022-12-17T20:48:03.704Z,21.52
2022-12-17T20:50:32.869Z,23.40
2022-12-17T20:53:01.958Z,21.80
2022-12-17T20:55:31.482Z,18.75
2022-12-17T20:58:07.719Z,19.67
2022-12-17T21:00:37.007Z,16.77
2022-12-17T21:03:06.452Z,18.80
2022-12-17T21:08:16.928Z,14.38
2022-12-17T21:10:46.111Z,17.17
2022-12-17T21:16:15.214Z,24.52
2022-12-17T21:18:44.981Z,22.70
2022-12-17T21:21:17.578Z,15.32
2022-12-17T21:23:47.811Z,21.40
2022-12-17T21:26:19.246Z,15.20
2022-12-17T21:28:52.877Z,18.02
2022-12-17T21:31:25.420Z,16.48
2022-12-17T21:33:58.748Z,14.95
2022-12-17T21:36:34.679Z,20.23
2022-12-17T21:39:09.246Z,16.65
2022-12-17T21:42:06.677Z,12.90
2022-12-17T21:44:38.240Z,16.55
2022-12-17T21:47:08.080Z,12.63
2022-12-17T21:49:37.168Z,15.70
2022-12-17T21:54:41.824Z,13.98
2022-12-17T21:57:11.003Z,17.17
2022-12-17T21:59:48.818Z,20.85
2022-12-17T22:02:20.088Z,14.18
2022-12-17T22:04:49.461Z,13.50
2022-12-17T22:07:19.773Z,16.58
2022-12-17T22:10:13.380Z,20.20
2022-12-17T22:12:59.099Z,14.20
2022-12-17T22:18:02.765Z,17.55
2022-12-17T22:20:31.995Z,12.18
2022-12-17T22:23:01.149Z,9.25
2022-12-17T22:25:30.442Z,14.48
2022-12-17T22:27:59.760Z,19.02
2022-12-17T22:30:43.814Z,17.17
2022-12-17T22:33:16.653Z,12.07
2022-12-17T22:37:46.406Z,10.55
2022-12-17T22:44:34.119Z,15.43
2022-12-17T22:44:34.738Z,12.27
2022-12-17T22:44:54.176Z,10.65
2022-12-17T22:47:26.311Z,11.38
2022-12-17T22:49:55.512Z,8.93
2022-12-17T22:52:25.119Z,15.73
2022-12-17T22:54:59.914Z,13.77
2022-12-17T22:57:37.364Z,14.57
2022-12-17T23:00:12.950Z,13.52
2022-12-17T23:02:44.201Z,18.23
2022-12-17T23:05:18.766Z,15.48
2022-12-17T23:07:47.894Z,13.23
2022-12-17T23:10:16.948Z,11.93
2022-12-17T23:12:55.368Z,16.20
2022-12-17T23:15:30.446Z,9.57
2022-12-17T23:18:03.503Z,13.77
2022-12-17T23:20:34.533Z,13.43
2022-12-17T23:23:03.931Z,16.35
2022-12-17T23:25:33.042Z,11.25
2022-12-17T23:28:02.620Z,11.02
2022-12-17T23:30:31.961Z,12.20
2022-12-17T23:33:03.476Z,7.60
2022-12-17T23:35:37.673Z,7.43
2022-12-17T23:38:06.768Z,12.77
2022-12-17T23:40:35.988Z,8.25
2022-12-17T23:43:15.784Z,12.43
2022-12-17T23:45:46.755Z,8.20
2022-12-17T23:48:18.247Z,15.73
2022-12-17T23:50:47.398Z,12.88
2022-12-17T23:53:16.535Z,11.73
2022-12-17T23:55:45.790Z,12.23
2022-12-17T23:58:15.287Z,8.65
